Latest  Newer  Older  Last 2 hours animation  Current image  Latest image 
Rain/snow radar  Infrared sat images 
Real-time lightning map

All time is UTC (add 2 hours to UTC in wintertime, 3 hours to UTC in DST for Latvia local time)

2019/09/21 19:20 EVRA 211920Z 29007KT 240V330 9999 SCT021 BKN027 BKN041 13/10 Q1013 NOSIG
2019/09/21 19:20 EVLA 211920Z AUTO 00000KT 9999 NCD 10/10 Q1016
2019/09/21 19:20 EVVA 211920Z AUTO 29005KT CAVOK 14/11 Q1014
2019/09/21 19:20 EYKA 211920Z 27010KT 240V300 9999 OVC043 13/10 Q1015
2019/09/21 19:20 EYPA 211920Z VRB02KT CAVOK 12/12 Q1017
2019/09/21 19:20 EYSA 211920Z 27011KT CAVOK 12/10 Q1015 BLU NOSIG
2019/09/21 19:20 EYVI 211920Z 29011KT 270V330 9999 BKN014 BKN047 12/10 Q1014 BECMG BKN010
2019/09/21 07:50 EEKA 210750Z 30007KT 250V350 9999 SCT023 OVC037 14/10 Q1009
2019/09/21 18:50 EEKE 211850Z AUTO 32005KT 290V350 9999NDV NSC 13/09 Q1012
2019/09/21 12:50 EEPU 211250Z 29013G23KT 9999 BKN021 OVC043 15/11 Q1008
2019/09/21 19:20 EETN 211920Z 35006KT 9999 -SHRA FEW023CB OVC043 11/08 Q1009 NOSIG
2019/09/21 18:50 EETU 211850Z AUTO 31004KT 9999 SCT018/// BKN025/// OVC030/// 09/08 Q1008
   RIGA AIRPORT     EVRA               56 55N  023 58E   10   X     T          6 LV
   LIEPAJA INTL     EVLA        26406  56 31N  021 06E    4   X                8 LV
   VENTPILS         EVVA               57 21N  021 33E    6   X                8 LV
   KAUNAS           EYKA               54 54N  023 55E   77   X     T          6 LT
   PALANGA INTL     EYPA               55 55N  021 03E   10   X                6 LT
   SIAULIAI INTL    EYSA               55 54N  023 24E  135   X     T          6 LT
   VILNIUS INTL     EYVI        26730  54 38N  025 17E  197   X     T          6 LT
   KARDLA           EEKA        26116  58 59N  022 50E    4   X                8 EE
   KURESSAARE       EEKE               58 14N  022 31E    4   X                8 EE
   PARNU            EEPU               58 25N  024 28E   14   X                8 EE
   TALLINN          EETN        26038  59 24N  024 49E   40   X     T          8 EE
   TARTU            EETU               58 19N  026 41E   67   X                8 EE

cloud coverage image from sat24.com and METAR data from weather.noaa.gov